Time,TemperatureF,DewpointF,PressureIn,WindDirection,WindDirectionDegrees,WindSpeedMPH,WindSpeedGustMPH,Humidity,HourlyPrecipIn,Conditions,Clouds,dailyrainin,SoftwareType,DateUTC
2013-04-25 00:01:00,49.8,45.1,28.14,NW,315,8.0,10.0,84,0.00,,,0.08,meteohub,2013-04-25 04:01:00,
2013-04-25 00:02:00,49.8,45.1,28.14,NW,315,8.0,10.0,84,0.00,,,0.08,meteohub,2013-04-25 04:02:00,
2013-04-25 00:06:00,49.8,45.1,28.14,NW,315,8.0,10.0,84,0.00,,,0.00,meteohub,2013-04-25 04:06:00,
2013-04-25 00:11:00,49.6,44.8,28.15,North,0,12.0,12.0,83,0.00,,,0.00,meteohub,2013-04-25 04:11:00,
2013-04-25 00:16:00,49.3,44.1,28.15,North,0,11.0,12.0,82,0.00,,,0.00,meteohub,2013-04-25 04:16:00,
2013-04-25 00:21:00,49.1,44.2,28.15,NW,315,11.0,14.0,83,0.00,,,0.00,meteohub,2013-04-25 04:21:00,
2013-04-25 00:26:00,48.4,43.7,28.16,NW,315,15.0,15.0,84,0.00,,,0.00,meteohub,2013-04-25 04:26:00,
2013-04-25 00:31:00,48.0,43.7,28.15,West,270,10.0,15.0,85,0.00,,,0.00,meteohub,2013-04-25 04:31:00,
2013-04-25 00:36:00,47.7,43.7,28.16,North,0,5.0,15.0,86,0.00,,,0.00,meteohub,2013-04-25 04:36:00,
2013-04-25 00:41:00,47.3,43.3,28.15,NW,315,8.0,15.0,86,0.00,,,0.00,meteohub,2013-04-25 04:41:00,
2013-04-25 00:46:00,46.9,43.3,28.16,West,270,9.0,14.0,87,0.00,,,0.00,meteohub,2013-04-25 04:46:00,
2013-04-25 00:52:00,46.8,43.2,28.16,NNW,338,11.0,12.0,87,0.00,,,0.00,meteohub,2013-04-25 04:52:00,
2013-04-25 00:57:00,46.6,42.6,28.15,NW,315,11.0,12.0,86,0.00,,,0.00,meteohub,2013-04-25 04:57:00,
2013-04-25 01:02:00,46.4,42.4,28.16,NW,315,8.0,15.0,86,0.00,,,0.00,meteohub,2013-04-25 05:02:00,
2013-04-25 01:07:00,46.0,42.1,28.16,NW,315,8.0,15.0,86,0.00,,,0.00,meteohub,2013-04-25 05:07:00,
2013-04-25 01:12:00,45.5,41.2,28.16,North,0,7.0,15.0,85,0.00,,,0.00,meteohub,2013-04-25 05:12:00,
2013-04-25 01:17:00,45.3,41.0,28.16,SW,225,10.0,14.0,85,0.00,,,0.00,meteohub,2013-04-25 05:17:00,
2013-04-25 01:22:00,45.0,40.6,28.16,NW,315,8.0,17.0,85,0.00,,,0.00,meteohub,2013-04-25 05:22:00,
2013-04-25 01:27:00,45.0,41.0,28.16,North,0,11.0,17.0,86,0.00,,,0.00,meteohub,2013-04-25 05:27:00,
2013-04-25 01:32:00,44.8,40.5,28.16,NW,315,11.0,17.0,85,0.00,,,0.00,meteohub,2013-04-25 05:32:00,
2013-04-25 01:37:00,44.8,40.5,28.16,North,0,16.0,16.0,85,0.00,,,0.00,meteohub,2013-04-25 05:37:00,
2013-04-25 01:42:00,44.8,39.9,28.16,NW,315,15.0,16.0,83,0.00,,,0.00,meteohub,2013-04-25 05:42:00,
2013-04-25 01:47:00,44.6,39.4,28.16,NW,315,10.0,17.0,82,0.00,,,0.00,meteohub,2013-04-25 05:47:00,
2013-04-25 01:52:00,44.6,39.2,28.16,North,0,9.0,17.0,81,0.00,,,0.00,meteohub,2013-04-25 05:52:00,
2013-04-25 01:57:00,44.4,39.2,28.16,NW,315,11.0,15.0,82,0.00,,,0.00,meteohub,2013-04-25 05:57:00,
2013-04-25 02:02:00,44.4,39.2,28.16,NW,315,8.0,14.0,82,0.00,,,0.00,meteohub,2013-04-25 06:02:00,
2013-04-25 02:07:00,44.4,39.2,28.17,NW,315,8.0,14.0,82,0.00,,,0.00,meteohub,2013-04-25 06:07:00,
2013-04-25 02:12:00,44.2,38.1,28.16,North,0,4.0,12.0,79,0.00,,,0.00,meteohub,2013-04-25 06:12:00,
2013-04-25 02:17:00,44.2,38.1,28.16,West,270,11.0,18.0,79,0.00,,,0.00,meteohub,2013-04-25 06:17:00,
2013-04-25 02:22:00,44.2,37.6,28.16,West,270,4.0,18.0,77,0.00,,,0.00,meteohub,2013-04-25 06:22:00,
2013-04-25 02:27:00,44.2,37.8,28.16,NE,45,2.0,16.0,78,0.00,,,0.00,meteohub,2013-04-25 06:27:00,
2013-04-25 02:32:00,44.2,38.1,28.16,NW,315,4.0,15.0,79,0.00,,,0.00,meteohub,2013-04-25 06:32:00,
2013-04-25 02:37:00,44.1,38.3,28.16,North,0,6.0,12.0,80,0.00,,,0.00,meteohub,2013-04-25 06:37:00,
2013-04-25 02:42:00,43.9,38.7,28.16,West,270,8.0,10.0,82,0.00,,,0.00,meteohub,2013-04-25 06:42:00,
2013-04-25 02:47:00,43.7,38.5,28.16,NW,315,4.0,12.0,82,0.00,,,0.00,meteohub,2013-04-25 06:47:00,
2013-04-25 02:53:00,43.7,38.5,28.16,SW,225,4.0,12.0,82,0.00,,,0.00,meteohub,2013-04-25 06:53:00,
2013-04-25 02:58:00,43.7,38.5,28.16,West,270,8.0,12.0,82,0.00,,,0.00,meteohub,2013-04-25 06:58:00,
2013-04-25 03:03:00,43.7,37.9,28.16,NW,315,8.0,8.0,80,0.00,,,0.00,meteohub,2013-04-25 07:03:00,
2013-04-25 03:08:00,43.7,37.0,28.17,NW,315,5.0,10.0,77,0.00,,,0.00,meteohub,2013-04-25 07:08:00,
2013-04-25 03:13:00,43.7,37.0,28.17,West,270,5.0,15.0,77,0.00,,,0.00,meteohub,2013-04-25 07:13:00,
2013-04-25 03:18:00,43.7,37.0,28.17,NW,315,9.0,15.0,77,0.00,,,0.00,meteohub,2013-04-25 07:18:00,
2013-04-25 03:23:00,43.5,36.5,28.17,West,270,5.0,15.0,76,0.00,,,0.00,meteohub,2013-04-25 07:23:00,
2013-04-25 03:28:00,43.5,36.9,28.17,WNW,293,9.0,10.0,77,0.00,,,0.00,meteohub,2013-04-25 07:28:00,
2013-04-25 03:33:00,43.5,36.9,28.17,NW,315,4.0,9.0,77,0.00,,,0.00,meteohub,2013-04-25 07:33:00,
2013-04-25 03:39:00,43.3,36.7,28.18,North,0,8.0,9.0,77,0.00,,,0.00,meteohub,2013-04-25 07:39:00,
2013-04-25 03:44:00,43.3,36.7,28.18,NW,315,7.0,11.0,77,0.00,,,0.00,meteohub,2013-04-25 07:44:00,
2013-04-25 03:49:00,43.2,36.1,28.17,NW,315,9.0,11.0,76,0.00,,,0.00,meteohub,2013-04-25 07:49:00,
2013-04-25 03:54:00,43.0,35.6,28.18,NW,315,11.0,12.0,75,0.00,,,0.00,meteohub,2013-04-25 07:54:00,
2013-04-25 03:59:00,42.8,35.1,28.18,WNW,293,8.0,15.0,74,0.00,,,0.00,meteohub,2013-04-25 07:59:00,
2013-04-25 04:04:00,42.8,35.1,28.19,WNW,293,8.0,15.0,74,0.00,,,0.00,meteohub,2013-04-25 08:04:00,
2013-04-25 04:09:00,42.4,34.7,28.18,North,0,11.0,15.0,74,0.00,,,0.00,meteohub,2013-04-25 08:09:00,
2013-04-25 04:14:00,42.3,34.2,28.18,NW,315,7.0,12.0,73,0.00,,,0.00,meteohub,2013-04-25 08:14:00,
2013-04-25 04:19:00,41.9,33.3,28.18,North,0,15.0,15.0,71,0.00,,,0.00,meteohub,2013-04-25 08:19:00,
2013-04-25 04:24:00,41.7,33.1,28.19,NW,315,8.0,15.0,71,0.00,,,0.00,meteohub,2013-04-25 08:24:00,
2013-04-25 04:30:00,41.7,32.7,28.19,North,0,11.0,15.0,70,0.00,,,0.00,meteohub,2013-04-25 08:30:00,
2013-04-25 04:35:00,41.5,31.8,28.19,NW,315,12.0,15.0,68,0.00,,,0.00,meteohub,2013-04-25 08:35:00,
2013-04-25 04:40:00,41.4,30.9,28.19,NW,315,15.0,17.0,66,0.00,,,0.00,meteohub,2013-04-25 08:40:00,
2013-04-25 04:45:00,41.4,31.3,28.20,NW,315,11.0,17.0,67,0.00,,,0.00,meteohub,2013-04-25 08:45:00,
2013-04-25 04:50:00,41.2,31.5,28.20,West,270,7.0,15.0,68,0.00,,,0.00,meteohub,2013-04-25 08:50:00,
2013-04-25 04:55:00,41.0,31.3,28.20,North,0,13.0,14.0,68,0.00,,,0.00,meteohub,2013-04-25 08:55:00,
2013-04-25 05:00:00,40.8,31.5,28.20,NW,315,11.0,14.0,69,0.00,,,0.00,meteohub,2013-04-25 09:00:00,
2013-04-25 05:05:00,40.6,31.6,28.20,North,0,8.0,15.0,70,0.00,,,0.00,meteohub,2013-04-25 09:05:00,
2013-04-25 05:10:00,40.5,31.8,28.20,NW,315,10.0,15.0,71,0.00,,,0.00,meteohub,2013-04-25 09:10:00,
2013-04-25 05:15:00,40.5,32.2,28.21,NW,315,7.0,15.0,72,0.00,,,0.00,meteohub,2013-04-25 09:15:00,
2013-04-25 05:21:00,40.3,32.4,28.21,NW,315,5.0,13.0,73,0.00,,,0.00,meteohub,2013-04-25 09:21:00,
2013-04-25 05:26:00,40.1,32.2,28.21,West,270,8.0,13.0,73,0.00,,,0.00,meteohub,2013-04-25 09:26:00,
2013-04-25 05:31:00,39.9,32.4,28.21,West,270,9.0,10.0,74,0.00,,,0.00,meteohub,2013-04-25 09:31:00,
2013-04-25 05:36:00,39.9,32.4,28.21,NW,315,6.0,10.0,74,0.00,,,0.00,meteohub,2013-04-25 09:36:00,
2013-04-25 05:41:00,39.7,32.2,28.21,NW,315,7.0,10.0,74,0.00,,,0.00,meteohub,2013-04-25 09:41:00,
2013-04-25 05:46:00,39.4,31.8,28.21,WNW,293,4.0,10.0,74,0.00,,,0.00,meteohub,2013-04-25 09:46:00,
2013-04-25 05:51:00,39.4,31.8,28.22,West,270,4.0,8.0,74,0.00,,,0.00,meteohub,2013-04-25 09:51:00,
2013-04-25 05:56:00,39.2,32.0,28.22,West,270,4.0,8.0,75,0.00,,,0.00,meteohub,2013-04-25 09:56:00,
2013-04-25 06:01:00,39.0,32.2,28.22,NW,315,4.0,5.0,76,0.00,,,0.00,meteohub,2013-04-25 10:01:00,
2013-04-25 06:07:00,39.0,32.2,28.22,NW,315,4.0,8.0,76,0.00,,,0.00,meteohub,2013-04-25 10:07:00,
2013-04-25 06:12:00,38.8,32.0,28.22,NW,315,4.0,8.0,76,0.00,,,0.00,meteohub,2013-04-25 10:12:00,
2013-04-25 06:17:00,38.8,32.0,28.22,NW,315,7.0,7.0,76,0.00,,,0.00,meteohub,2013-04-25 10:17:00,
2013-04-25 06:22:00,38.8,32.0,28.22,NW,315,5.0,9.0,76,0.00,,,0.00,meteohub,2013-04-25 10:22:00,
2013-04-25 06:27:00,38.7,31.8,28.22,NW,315,3.0,9.0,76,0.00,,,0.00,meteohub,2013-04-25 10:27:00,
2013-04-25 06:32:00,38.5,31.6,28.22,West,270,4.0,7.0,76,0.00,,,0.00,meteohub,2013-04-25 10:32:00,
2013-04-25 06:37:00,38.5,31.8,28.22,North,0,5.0,5.0,77,0.00,,,0.00,meteohub,2013-04-25 10:37:00,
2013-04-25 06:42:00,38.5,31.6,28.23,NW,315,3.0,7.0,76,0.00,,,0.00,meteohub,2013-04-25 10:42:00,
2013-04-25 06:47:00,38.5,31.6,28.23,South,180,6.0,7.0,76,0.00,,,0.00,meteohub,2013-04-25 10:47:00,
2013-04-25 06:52:00,38.5,31.6,28.23,NW,315,8.0,9.0,76,0.00,,,0.00,meteohub,2013-04-25 10:52:00,
2013-04-25 06:57:00,38.5,31.6,28.24,North,0,4.0,11.0,76,0.00,,,0.00,meteohub,2013-04-25 10:57:00,
2013-04-25 07:02:00,38.5,31.6,28.24,West,270,6.0,11.0,76,0.00,,,0.00,meteohub,2013-04-25 11:02:00,
2013-04-25 07:07:00,38.7,31.8,28.24,North,0,9.0,11.0,76,0.00,,,0.00,meteohub,2013-04-25 11:07:00,
2013-04-25 07:12:00,38.7,31.8,28.25,WNW,293,11.0,11.0,76,0.00,,,0.00,meteohub,2013-04-25 11:12:00,
2013-04-25 07:17:00,38.8,32.0,28.25,North,0,5.0,11.0,76,0.00,,,0.00,meteohub,2013-04-25 11:17:00,
2013-04-25 07:22:00,39.2,31.6,28.25,WNW,293,8.0,11.0,74,0.00,,,0.00,meteohub,2013-04-25 11:22:00,
2013-04-25 07:27:00,39.2,31.6,28.25,West,270,7.0,11.0,74,0.00,,,0.00,meteohub,2013-04-25 11:27:00,
2013-04-25 07:32:00,39.4,31.8,28.25,NW,315,4.0,8.0,74,0.00,,,0.00,meteohub,2013-04-25 11:32:00,
2013-04-25 07:37:00,39.6,32.0,28.26,NE,45,5.0,10.0,74,0.00,,,0.00,meteohub,2013-04-25 11:37:00,
2013-04-25 07:42:00,40.1,32.5,28.26,NW,315,7.0,10.0,74,0.00,,,0.00,meteohub,2013-04-25 11:42:00,
2013-04-25 07:47:00,40.1,32.2,28.26,SW,225,8.0,10.0,73,0.00,,,0.00,meteohub,2013-04-25 11:47:00,
2013-04-25 07:52:00,40.3,32.4,28.27,North,0,6.0,9.0,73,0.00,,,0.00,meteohub,2013-04-25 11:52:00,
2013-04-25 07:57:00,40.5,32.5,28.26,NW,315,8.0,9.0,73,0.00,,,0.00,meteohub,2013-04-25 11:57:00,
2013-04-25 08:02:00,40.3,32.0,28.27,NE,45,5.0,9.0,72,0.00,,,0.00,meteohub,2013-04-25 12:02:00,
2013-04-25 08:07:00,40.1,31.8,28.27,NE,45,6.0,9.0,72,0.00,,,0.00,meteohub,2013-04-25 12:07:00,
2013-04-25 08:12:00,40.1,31.8,28.28,NW,315,6.0,9.0,72,0.00,,,0.00,meteohub,2013-04-25 12:12:00,
2013-04-25 08:17:00,40.5,32.2,28.28,NW,315,5.0,7.0,72,0.00,,,0.00,meteohub,2013-04-25 12:17:00,
2013-04-25 08:22:00,40.3,31.6,28.28,East,90,4.0,8.0,71,0.00,,,0.00,meteohub,2013-04-25 12:22:00,
2013-04-25 08:27:00,41.2,32.5,28.28,NW,315,6.0,8.0,71,0.00,,,0.00,meteohub,2013-04-25 12:27:00,
2013-04-25 08:32:00,41.4,32.4,28.29,West,270,4.0,8.0,70,0.00,,,0.00,meteohub,2013-04-25 12:32:00,
2013-04-25 08:37:00,41.0,31.6,28.29,West,270,8.0,8.0,69,0.00,,,0.00,meteohub,2013-04-25 12:37:00,
2013-04-25 08:42:00,40.8,32.2,28.29,West,270,4.0,8.0,71,0.00,,,0.00,meteohub,2013-04-25 12:42:00,
2013-04-25 08:47:00,40.5,31.8,28.29,NW,315,3.0,10.0,71,0.00,,,0.00,meteohub,2013-04-25 12:47:00,
2013-04-25 08:52:00,41.4,33.1,28.30,North,0,5.0,10.0,72,0.00,,,0.00,meteohub,2013-04-25 12:52:00,
2013-04-25 08:58:00,41.7,32.7,28.30,WNW,293,5.0,10.0,70,0.00,,,0.00,meteohub,2013-04-25 12:58:00,
2013-04-25 09:03:00,41.2,31.8,28.30,North,0,4.0,10.0,69,0.00,,,0.00,meteohub,2013-04-25 13:03:00,
2013-04-25 09:08:00,41.4,32.0,28.30,North,0,4.0,11.0,69,0.00,,,0.00,meteohub,2013-04-25 13:08:00,
2013-04-25 09:13:00,41.7,32.4,28.30,North,0,4.0,11.0,69,0.00,,,0.00,meteohub,2013-04-25 13:13:00,
2013-04-25 09:18:00,41.5,31.8,28.30,NW,315,2.0,11.0,68,0.00,,,0.00,meteohub,2013-04-25 13:18:00,
2013-04-25 09:23:00,42.4,33.1,28.30,SW,225,5.0,10.0,69,0.00,,,0.00,meteohub,2013-04-25 13:23:00,
2013-04-25 09:28:00,43.2,32.9,28.30,North,0,2.0,11.0,67,0.00,,,0.00,meteohub,2013-04-25 13:28:00,
2013-04-25 09:33:00,43.3,32.7,28.30,West,270,6.0,11.0,66,0.00,,,0.00,meteohub,2013-04-25 13:33:00,
2013-04-25 09:38:00,43.0,32.0,28.30,SW,225,3.0,11.0,65,0.00,,,0.00,meteohub,2013-04-25 13:38:00,
2013-04-25 09:44:00,43.2,32.2,28.30,NW,315,4.0,7.0,65,0.00,,,0.00,meteohub,2013-04-25 13:44:00,
2013-04-25 09:49:00,43.7,32.7,28.30,West,270,3.0,7.0,65,0.00,,,0.00,meteohub,2013-04-25 13:49:00,
2013-04-25 09:54:00,43.9,32.9,28.29,NE,45,4.0,7.0,65,0.00,,,0.00,meteohub,2013-04-25 13:54:00,
2013-04-25 09:59:00,44.6,33.3,28.30,East,90,6.0,7.0,64,0.00,,,0.00,meteohub,2013-04-25 13:59:00,
2013-04-25 10:04:00,45.3,33.4,28.30,NW,315,4.0,7.0,63,0.00,,,0.00,meteohub,2013-04-25 14:04:00,
2013-04-25 10:09:00,44.8,32.5,28.30,West,270,8.0,8.0,62,0.00,,,0.00,meteohub,2013-04-25 14:09:00,
2013-04-25 10:14:00,45.1,32.9,28.30,ENE,68,7.0,7.0,62,0.00,,,0.00,meteohub,2013-04-25 14:14:00,
2013-04-25 10:19:00,45.3,33.1,28.30,NW,315,6.0,8.0,62,0.00,,,0.00,meteohub,2013-04-25 14:19:00,
2013-04-25 10:24:00,45.5,33.3,28.30,NW,315,2.0,8.0,62,0.00,,,0.00,meteohub,2013-04-25 14:24:00,
2013-04-25 10:30:00,46.0,33.3,28.30,NW,315,5.0,8.0,61,0.00,,,0.00,meteohub,2013-04-25 14:30:00,
2013-04-25 10:35:00,46.6,35.1,28.30,NE,45,4.0,7.0,64,0.00,,,0.00,meteohub,2013-04-25 14:35:00,
2013-04-25 10:40:00,46.9,33.8,28.30,NE,45,5.0,8.0,60,0.00,,,0.00,meteohub,2013-04-25 14:40:00,
2013-04-25 10:45:00,47.1,34.3,28.30,West,270,3.0,8.0,61,0.00,,,0.00,meteohub,2013-04-25 14:45:00,
2013-04-25 10:50:00,46.9,33.8,28.30,North,0,4.0,8.0,60,0.00,,,0.00,meteohub,2013-04-25 14:50:00,
2013-04-25 10:55:00,46.9,33.4,28.31,West,270,5.0,8.0,59,0.00,,,0.00,meteohub,2013-04-25 14:55:00,
2013-04-25 11:00:00,46.9,33.4,28.31,NW,315,4.0,8.0,59,0.00,,,0.00,meteohub,2013-04-25 15:00:00,
2013-04-25 11:05:00,47.5,34.3,28.31,NE,45,7.0,8.0,60,0.00,,,0.00,meteohub,2013-04-25 15:05:00,
2013-04-25 11:11:00,48.6,34.9,28.31,SE,135,3.0,8.0,59,0.00,,,0.00,meteohub,2013-04-25 15:11:00,
2013-04-25 11:16:00,49.3,35.6,28.31,West,270,8.0,8.0,59,0.00,,,0.00,meteohub,2013-04-25 15:16:00,
2013-04-25 11:21:00,48.7,34.7,28.31,NW,315,8.0,10.0,58,0.00,,,0.00,meteohub,2013-04-25 15:21:00,
2013-04-25 11:26:00,49.1,35.4,28.31,NW,315,8.0,11.0,59,0.00,,,0.00,meteohub,2013-04-25 15:26:00,
2013-04-25 11:31:00,48.6,34.0,28.31,NW,315,5.0,11.0,57,0.00,,,0.00,meteohub,2013-04-25 15:31:00,
2013-04-25 11:36:00,48.7,34.7,28.31,NW,315,5.0,11.0,58,0.00,,,0.00,meteohub,2013-04-25 15:36:00,
2013-04-25 11:41:00,49.5,35.8,28.31,North,0,7.0,10.0,59,0.00,,,0.00,meteohub,2013-04-25 15:41:00,
2013-04-25 11:46:00,49.6,35.1,28.31,SW,225,7.0,9.0,57,0.00,,,0.00,meteohub,2013-04-25 15:46:00,
2013-04-25 11:51:00,49.5,34.0,28.31,West,270,5.0,11.0,55,0.00,,,0.00,meteohub,2013-04-25 15:51:00,
2013-04-25 11:57:00,50.0,34.5,28.30,SW,225,6.0,11.0,55,0.00,,,0.00,meteohub,2013-04-25 15:57:00,
2013-04-25 12:02:00,49.8,33.8,28.30,West,270,5.0,11.0,54,0.00,,,0.00,meteohub,2013-04-25 16:02:00,
2013-04-25 12:07:00,50.0,34.0,28.30,West,270,7.0,10.0,54,0.00,,,0.00,meteohub,2013-04-25 16:07:00,
2013-04-25 12:12:00,50.2,32.2,28.30,North,0,8.0,10.0,50,0.00,,,0.00,meteohub,2013-04-25 16:12:00,
2013-04-25 12:17:00,50.2,32.7,28.30,WNW,293,8.0,10.0,51,0.00,,,0.00,meteohub,2013-04-25 16:17:00,
2013-04-25 12:22:00,50.9,34.3,28.30,West,270,10.0,10.0,53,0.00,,,0.00,meteohub,2013-04-25 16:22:00,
2013-04-25 12:27:00,50.9,32.9,28.30,West,270,9.0,11.0,50,0.00,,,0.00,meteohub,2013-04-25 16:27:00,
2013-04-25 12:32:00,51.3,34.2,28.30,WSW,248,2.0,11.0,52,0.00,,,0.00,meteohub,2013-04-25 16:32:00,
2013-04-25 12:37:00,52.0,34.0,28.30,NW,315,5.0,11.0,50,0.00,,,0.00,meteohub,2013-04-25 16:37:00,
2013-04-25 12:42:00,52.3,32.2,28.30,WSW,248,10.0,10.0,46,0.00,,,0.00,meteohub,2013-04-25 16:42:00,
2013-04-25 12:47:00,52.3,31.6,28.29,West,270,8.0,10.0,45,0.00,,,0.00,meteohub,2013-04-25 16:47:00,
2013-04-25 12:52:00,52.7,32.0,28.29,West,270,4.0,10.0,45,0.00,,,0.00,meteohub,2013-04-25 16:52:00,
2013-04-25 12:57:00,53.1,31.1,28.29,NW,315,5.0,10.0,43,0.00,,,0.00,meteohub,2013-04-25 16:57:00,
2013-04-25 13:02:00,53.8,32.4,28.29,SW,225,7.0,8.0,44,0.00,,,0.00,meteohub,2013-04-25 17:02:00,
2013-04-25 13:07:00,53.6,29.3,28.29,SW,225,4.0,8.0,39,0.00,,,0.00,meteohub,2013-04-25 17:07:00,
2013-04-25 13:12:00,53.6,31.1,28.29,NW,315,5.0,8.0,42,0.00,,,0.00,meteohub,2013-04-25 17:12:00,
2013-04-25 13:17:00,54.0,30.7,28.29,SW,225,4.0,9.0,41,0.00,,,0.00,meteohub,2013-04-25 17:17:00,
2013-04-25 13:22:00,55.0,32.9,28.29,NW,315,7.0,9.0,43,0.00,,,0.00,meteohub,2013-04-25 17:22:00,
2013-04-25 13:27:00,55.6,32.2,28.28,NE,45,6.0,11.0,41,0.00,,,0.00,meteohub,2013-04-25 17:27:00,
2013-04-25 13:32:00,56.1,31.5,28.28,NE,45,4.0,11.0,39,0.00,,,0.00,meteohub,2013-04-25 17:32:00,
2013-04-25 13:37:00,56.7,31.3,28.28,West,270,9.0,11.0,38,0.00,,,0.00,meteohub,2013-04-25 17:37:00,
2013-04-25 13:42:00,56.7,30.0,28.28,West,270,4.0,9.0,36,0.00,,,0.00,meteohub,2013-04-25 17:42:00,
2013-04-25 13:47:00,56.7,30.7,28.28,East,90,6.0,9.0,37,0.00,,,0.00,meteohub,2013-04-25 17:47:00,
2013-04-25 13:52:00,57.2,29.8,28.28,East,90,4.0,9.0,35,0.00,,,0.00,meteohub,2013-04-25 17:52:00,
2013-04-25 13:57:00,57.2,29.8,28.28,West,270,4.0,9.0,35,0.00,,,0.00,meteohub,2013-04-25 17:57:00,
2013-04-25 14:02:00,57.7,29.5,28.28,NW,315,5.0,9.0,34,0.00,,,0.00,meteohub,2013-04-25 18:02:00,
2013-04-25 14:07:00,58.3,30.0,28.27,East,90,3.0,9.0,34,0.00,,,0.00,meteohub,2013-04-25 18:07:00,
2013-04-25 14:12:00,59.0,30.0,28.27,ENE,68,4.0,9.0,33,0.00,,,0.00,meteohub,2013-04-25 18:12:00,
2013-04-25 14:17:00,59.4,30.2,28.27,West,270,5.0,7.0,33,0.00,,,0.00,meteohub,2013-04-25 18:17:00,
2013-04-25 14:22:00,58.8,28.2,28.27,SW,225,2.0,7.0,31,0.00,,,0.00,meteohub,2013-04-25 18:22:00,
2013-04-25 14:27:00,59.4,30.2,28.27,SW,225,8.0,10.0,33,0.00,,,0.00,meteohub,2013-04-25 18:27:00,
2013-04-25 14:32:00,59.5,30.4,28.27,NW,315,4.0,10.0,33,0.00,,,0.00,meteohub,2013-04-25 18:32:00,
2013-04-25 14:38:00,59.5,30.4,28.27,NW,315,7.0,8.0,33,0.00,,,0.00,meteohub,2013-04-25 18:38:00,
2013-04-25 14:43:00,59.5,30.4,28.26,SW,225,3.0,8.0,33,0.00,,,0.00,meteohub,2013-04-25 18:43:00,
2013-04-25 14:48:00,59.7,30.6,28.27,West,270,4.0,7.0,33,0.00,,,0.00,meteohub,2013-04-25 18:48:00,
2013-04-25 14:53:00,59.9,30.7,28.26,NW,315,4.0,7.0,33,0.00,,,0.00,meteohub,2013-04-25 18:53:00,
2013-04-25 14:58:00,60.3,27.9,28.26,SW,225,2.0,5.0,29,0.00,,,0.00,meteohub,2013-04-25 18:58:00,
2013-04-25 15:03:00,60.6,28.2,28.26,South,180,3.0,8.0,29,0.00,,,0.00,meteohub,2013-04-25 19:03:00,
2013-04-25 15:08:00,61.0,27.7,28.26,NW,315,2.0,8.0,28,0.00,,,0.00,meteohub,2013-04-25 19:08:00,
2013-04-25 15:13:00,61.2,26.1,28.26,SW,225,4.0,7.0,26,0.00,,,0.00,meteohub,2013-04-25 19:13:00,
2013-04-25 15:18:00,62.1,27.7,28.26,SW,225,6.0,7.0,27,0.00,,,0.00,meteohub,2013-04-25 19:18:00,
2013-04-25 15:24:00,61.7,26.4,28.26,SE,135,2.0,8.0,26,0.00,,,0.00,meteohub,2013-04-25 19:24:00,
2013-04-25 15:29:00,61.9,27.5,28.25,SE,135,2.0,8.0,27,0.00,,,0.00,meteohub,2013-04-25 19:29:00,
2013-04-25 15:34:00,62.4,30.6,28.25,West,270,4.0,8.0,30,0.00,,,0.00,meteohub,2013-04-25 19:34:00,
2013-04-25 15:39:00,62.4,28.9,28.25,NE,45,2.0,6.0,28,0.00,,,0.00,meteohub,2013-04-25 19:39:00,
2013-04-25 15:44:00,62.6,27.1,28.25,West,270,5.0,6.0,26,0.00,,,0.00,meteohub,2013-04-25 19:44:00,
2013-04-25 15:49:00,62.6,29.1,28.25,West,270,7.0,7.0,28,0.00,,,0.00,meteohub,2013-04-25 19:49:00,
2013-04-25 15:54:00,62.8,27.3,28.24,South,180,2.0,7.0,26,0.00,,,0.00,meteohub,2013-04-25 19:54:00,
2013-04-25 15:59:00,63.5,28.0,28.24,East,90,4.0,7.0,26,0.00,,,0.00,meteohub,2013-04-25 19:59:00,
2013-04-25 16:04:00,63.5,28.0,28.24,NE,45,4.0,7.0,26,0.01,,,0.01,meteohub,2013-04-25 20:04:00,
2013-04-25 16:09:00,63.5,27.0,28.23,NW,315,3.0,6.0,25,0.01,,,0.01,meteohub,2013-04-25 20:09:00,
2013-04-25 16:15:00,63.5,27.0,28.23,SW,225,2.0,6.0,25,0.01,,,0.01,meteohub,2013-04-25 20:15:00,
2013-04-25 16:20:00,64.0,28.4,28.23,East,90,3.0,6.0,26,0.01,,,0.01,meteohub,2013-04-25 20:20:00,
2013-04-25 16:25:00,64.2,24.6,28.23,NW,315,6.0,6.0,22,0.01,,,0.04,meteohub,2013-04-25 20:25:00,
2013-04-25 16:30:00,64.2,23.5,28.23,SW,225,5.0,8.0,21,0.04,,,0.04,meteohub,2013-04-25 20:30:00,
2013-04-25 16:35:00,64.6,28.0,28.23,NW,315,2.0,8.0,25,0.04,,,0.04,meteohub,2013-04-25 20:35:00,
2013-04-25 16:40:00,64.8,29.1,28.23,West,270,8.0,8.0,26,0.08,,,0.08,meteohub,2013-04-25 20:40:00,
2013-04-25 16:45:00,64.4,27.9,28.22,West,270,8.0,16.0,25,0.08,,,0.08,meteohub,2013-04-25 20:45:00,
2013-04-25 16:50:00,63.9,26.4,28.22,WNW,293,7.0,21.0,24,0.08,,,0.08,meteohub,2013-04-25 20:50:00,
2013-04-25 16:56:00,63.9,23.2,28.23,NW,315,6.0,21.0,21,0.08,,,0.08,meteohub,2013-04-25 20:56:00,
2013-04-25 17:01:00,63.7,23.0,28.22,NW,315,8.0,11.0,21,0.07,,,0.08,meteohub,2013-04-25 21:01:00,
2013-04-25 17:06:00,64.2,23.5,28.22,SW,225,4.0,11.0,21,0.07,,,0.08,meteohub,2013-04-25 21:06:00,
2013-04-25 17:11:00,64.6,21.4,28.22,West,270,4.0,9.0,19,0.07,,,0.08,meteohub,2013-04-25 21:11:00,
2013-04-25 17:16:00,64.6,21.4,28.22,NW,315,8.0,9.0,19,0.07,,,0.08,meteohub,2013-04-25 21:16:00,
2013-04-25 17:21:00,64.6,20.1,28.22,NW,315,8.0,15.0,18,0.05,,,0.08,meteohub,2013-04-25 21:21:00,
2013-04-25 17:26:00,64.8,20.3,28.22,NE,45,6.0,15.0,18,0.05,,,0.08,meteohub,2013-04-25 21:26:00,
2013-04-25 17:31:00,64.6,18.9,28.22,North,0,8.0,15.0,17,0.05,,,0.08,meteohub,2013-04-25 21:31:00,
2013-04-25 17:36:00,64.4,18.7,28.22,West,270,8.0,12.0,17,0.05,,,0.08,meteohub,2013-04-25 21:36:00,
2013-04-25 17:42:00,64.8,18.9,28.22,NW,315,8.0,12.0,17,0.00,,,0.08,meteohub,2013-04-25 21:42:00,
2013-04-25 17:47:00,64.6,18.9,28.22,West,270,10.0,11.0,17,0.00,,,0.08,meteohub,2013-04-25 21:47:00,
2013-04-25 17:52:00,64.4,18.7,28.22,NW,315,14.0,14.0,17,0.00,,,0.08,meteohub,2013-04-25 21:52:00,
2013-04-25 17:57:00,64.2,19.8,28.23,West,270,8.0,15.0,18,0.00,,,0.08,meteohub,2013-04-25 21:57:00,
2013-04-25 18:02:00,64.4,18.7,28.23,NW,315,6.0,15.0,17,0.00,,,0.08,meteohub,2013-04-25 22:02:00,
2013-04-25 18:07:00,64.4,18.7,28.23,West,270,12.0,14.0,17,0.00,,,0.08,meteohub,2013-04-25 22:07:00,
2013-04-25 18:12:00,64.0,19.6,28.23,West,270,11.0,12.0,18,0.00,,,0.08,meteohub,2013-04-25 22:12:00,
2013-04-25 18:17:00,64.0,19.6,28.23,West,270,6.0,12.0,18,0.00,,,0.08,meteohub,2013-04-25 22:17:00,
2013-04-25 18:22:00,63.9,19.6,28.23,SW,225,8.0,14.0,18,0.00,,,0.08,meteohub,2013-04-25 22:22:00,
2013-04-25 18:27:00,63.9,19.6,28.23,NW,315,6.0,14.0,18,0.00,,,0.08,meteohub,2013-04-25 22:27:00,
2013-04-25 18:32:00,63.7,19.4,28.23,North,0,9.0,14.0,18,0.00,,,0.08,meteohub,2013-04-25 22:32:00,
2013-04-25 18:37:00,63.5,19.2,28.23,NW,315,6.0,13.0,18,0.00,,,0.08,meteohub,2013-04-25 22:37:00,
2013-04-25 18:42:00,63.5,19.2,28.23,NW,315,7.0,11.0,18,0.00,,,0.08,meteohub,2013-04-25 22:42:00,
2013-04-25 18:47:00,63.5,19.2,28.23,NW,315,8.0,11.0,18,0.00,,,0.08,meteohub,2013-04-25 22:47:00,
2013-04-25 18:52:00,63.3,19.0,28.23,NW,315,7.0,11.0,18,0.00,,,0.08,meteohub,2013-04-25 22:52:00,
2013-04-25 18:57:00,63.0,18.9,28.23,NW,315,9.0,11.0,18,0.00,,,0.08,meteohub,2013-04-25 22:57:00,
2013-04-25 19:02:00,62.8,18.7,28.24,NW,315,4.0,11.0,18,0.00,,,0.08,meteohub,2013-04-25 23:02:00,
2013-04-25 19:07:00,62.8,19.9,28.23,NW,315,8.0,11.0,19,0.00,,,0.08,meteohub,2013-04-25 23:07:00,
2013-04-25 19:12:00,62.4,20.8,28.24,North,0,6.0,10.0,20,0.00,,,0.08,meteohub,2013-04-25 23:12:00,
2013-04-25 19:18:00,62.1,20.5,28.24,West,270,6.0,10.0,20,0.00,,,0.08,meteohub,2013-04-25 23:18:00,
2013-04-25 19:23:00,61.7,20.1,28.24,North,0,5.0,10.0,20,0.00,,,0.08,meteohub,2013-04-25 23:23:00,
2013-04-25 19:28:00,61.5,21.2,28.25,WNW,293,5.0,10.0,21,0.00,,,0.08,meteohub,2013-04-25 23:28:00,
2013-04-25 19:33:00,61.3,21.0,28.24,WNW,293,4.0,9.0,21,0.05,,,0.13,meteohub,2013-04-25 23:33:00,
2013-04-25 19:38:00,61.0,20.8,28.25,NW,315,4.0,9.0,21,0.05,,,0.13,meteohub,2013-04-25 23:38:00,
2013-04-25 19:43:00,60.4,21.4,28.24,West,270,4.0,7.0,22,0.05,,,0.13,meteohub,2013-04-25 23:43:00,
2013-04-25 19:48:00,59.9,21.9,28.25,NW,315,4.0,7.0,23,0.05,,,0.13,meteohub,2013-04-25 23:48:00,
2013-04-25 19:53:00,59.5,21.7,28.25,NW,315,4.0,7.0,23,0.05,,,0.13,meteohub,2013-04-25 23:53:00,
2013-04-25 19:59:00,59.0,21.2,28.25,NW,315,4.0,7.0,23,0.05,,,0.13,meteohub,2013-04-25 23:59:00,
2013-04-25 20:04:00,58.6,21.9,28.25,West,270,4.0,4.0,24,0.05,,,0.13,meteohub,2013-04-26 00:04:00,
2013-04-25 20:09:00,58.3,22.6,28.25,West,270,2.0,4.0,25,0.05,,,0.13,meteohub,2013-04-26 00:09:00,
2013-04-25 20:14:00,57.7,22.1,28.25,NW,315,2.0,4.0,25,0.05,,,0.13,meteohub,2013-04-26 00:14:00,
2013-04-25 20:19:00,57.2,21.7,28.26,North,0,3.0,4.0,25,0.05,,,0.13,meteohub,2013-04-26 00:19:00,
2013-04-25 20:24:00,56.8,22.3,28.26,North,0,2.0,4.0,26,0.05,,,0.13,meteohub,2013-04-26 00:24:00,
2013-04-25 20:29:00,56.5,21.9,28.26,NW,315,2.0,4.0,26,0.00,,,0.13,meteohub,2013-04-26 00:29:00,
2013-04-25 20:34:00,56.1,21.7,28.27,West,270,2.0,4.0,26,0.00,,,0.13,meteohub,2013-04-26 00:34:00,
2013-04-25 20:39:00,55.9,21.6,28.27,West,270,2.0,4.0,26,0.00,,,0.13,meteohub,2013-04-26 00:39:00,
2013-04-25 20:45:00,55.8,21.4,28.27,West,270,2.0,4.0,26,0.00,,,0.13,meteohub,2013-04-26 00:45:00,
2013-04-25 20:50:00,55.4,21.0,28.27,NW,315,2.0,4.0,26,0.00,,,0.13,meteohub,2013-04-26 00:50:00,
2013-04-25 20:55:00,55.0,18.9,28.28,West,270,2.0,4.0,24,0.00,,,0.13,meteohub,2013-04-26 00:55:00,
2013-04-25 21:00:00,54.9,18.7,28.28,North,0,3.0,5.0,24,0.00,,,0.13,meteohub,2013-04-26 01:00:00,
2013-04-25 21:05:00,55.0,18.0,28.29,West,270,2.0,5.0,23,0.00,,,0.13,meteohub,2013-04-26 01:05:00,
2013-04-25 21:10:00,54.7,18.5,28.29,NW,315,2.0,5.0,24,0.00,,,0.13,meteohub,2013-04-26 01:10:00,
2013-04-25 21:15:00,54.3,18.3,28.30,West,270,3.0,4.0,24,0.00,,,0.13,meteohub,2013-04-26 01:15:00,
2013-04-25 21:20:00,54.5,18.5,28.30,NW,315,4.0,5.0,24,0.00,,,0.13,meteohub,2013-04-26 01:20:00,
2013-04-25 21:25:00,54.5,18.5,28.30,WNW,293,4.0,5.0,24,0.00,,,0.13,meteohub,2013-04-26 01:25:00,
2013-04-25 21:31:00,54.5,17.4,28.30,West,270,3.0,5.0,23,0.00,,,0.13,meteohub,2013-04-26 01:31:00,
2013-04-25 21:36:00,54.5,17.4,28.30,NW,315,3.0,5.0,23,0.00,,,0.13,meteohub,2013-04-26 01:36:00,
2013-04-25 21:41:00,54.5,18.5,28.30,West,270,3.0,5.0,24,0.00,,,0.13,meteohub,2013-04-26 01:41:00,
2013-04-25 21:46:00,54.3,18.3,28.30,West,270,3.0,4.0,24,0.00,,,0.13,meteohub,2013-04-26 01:46:00,
2013-04-25 21:51:00,54.1,18.1,28.30,West,270,2.0,5.0,24,0.00,,,0.13,meteohub,2013-04-26 01:51:00,
2013-04-25 21:56:00,53.8,18.9,28.31,NW,315,2.0,5.0,25,0.00,,,0.13,meteohub,2013-04-26 01:56:00,
2013-04-25 22:01:00,53.6,19.6,28.31,NW,315,2.0,5.0,26,0.00,,,0.13,meteohub,2013-04-26 02:01:00,
2013-04-25 22:06:00,53.1,19.9,28.31,NW,315,2.0,3.0,27,0.00,,,0.13,meteohub,2013-04-26 02:06:00,
2013-04-25 22:11:00,52.5,20.3,28.31,NW,315,2.0,2.0,28,0.00,,,0.13,meteohub,2013-04-26 02:11:00,
2013-04-25 22:17:00,52.3,20.1,28.31,West,270,2.0,2.0,28,0.00,,,0.13,meteohub,2013-04-26 02:17:00,
2013-04-25 22:22:00,52.0,19.9,28.32,NW,315,2.0,2.0,28,0.00,,,0.13,meteohub,2013-04-26 02:22:00,
2013-04-25 22:27:00,51.8,20.5,28.32,NW,315,2.0,2.0,29,0.00,,,0.13,meteohub,2013-04-26 02:27:00,
2013-04-25 22:32:00,52.0,21.6,28.32,West,270,4.0,4.0,30,0.00,,,0.13,meteohub,2013-04-26 02:32:00,
2013-04-25 22:37:00,52.0,21.6,28.32,West,270,2.0,4.0,30,0.00,,,0.13,meteohub,2013-04-26 02:37:00,
2013-04-25 22:42:00,51.6,23.4,28.32,NW,315,4.0,4.0,33,0.00,,,0.13,meteohub,2013-04-26 02:42:00,
2013-04-25 22:48:00,51.8,22.8,28.32,West,270,7.0,7.0,32,0.00,,,0.13,meteohub,2013-04-26 02:48:00,
2013-04-25 22:53:00,52.0,23.0,28.32,NW,315,4.0,8.0,32,0.00,,,0.13,meteohub,2013-04-26 02:53:00,
2013-04-25 22:58:00,52.0,23.7,28.32,NW,315,4.0,8.0,33,0.00,,,0.13,meteohub,2013-04-26 02:58:00,
2013-04-25 23:03:00,51.8,23.5,28.32,NW,315,4.0,8.0,33,0.00,,,0.13,meteohub,2013-04-26 03:03:00,
2013-04-25 23:08:00,51.6,24.8,28.32,NW,315,4.0,6.0,35,0.00,,,0.13,meteohub,2013-04-26 03:08:00,
2013-04-25 23:13:00,51.4,25.3,28.32,NW,315,3.0,6.0,36,0.00,,,0.13,meteohub,2013-04-26 03:13:00,
2013-04-25 23:18:00,51.1,25.0,28.32,NW,315,6.0,6.0,36,0.00,,,0.13,meteohub,2013-04-26 03:18:00,
2013-04-25 23:23:00,51.3,25.2,28.33,West,270,2.0,4.0,36,0.00,,,0.13,meteohub,2013-04-26 03:23:00,
2013-04-25 23:28:00,51.3,25.2,28.32,SW,225,4.0,6.0,36,0.00,,,0.13,meteohub,2013-04-26 03:28:00,
2013-04-25 23:34:00,51.3,25.2,28.33,NW,315,3.0,6.0,36,0.00,,,0.13,meteohub,2013-04-26 03:34:00,
2013-04-25 23:39:00,51.1,25.0,28.33,West,270,2.0,5.0,36,0.00,,,0.13,meteohub,2013-04-26 03:39:00,
2013-04-25 23:44:00,51.1,25.7,28.33,West,270,2.0,4.0,37,0.00,,,0.13,meteohub,2013-04-26 03:44:00,
2013-04-25 23:49:00,51.1,25.7,28.33,West,270,3.0,3.0,37,0.00,,,0.13,meteohub,2013-04-26 03:49:00,
2013-04-25 23:54:00,51.1,25.7,28.33,South,180,2.0,3.0,37,0.00,,,0.13,meteohub,2013-04-26 03:54:00,
2013-04-25 23:59:00,51.1,25.7,28.33,West,270,2.0,3.0,37,0.00,,,0.13,meteohub,2013-04-26 03:59:00,